sensor_id;sensor_type;location;lat;lon;timestamp;P1;durP1;ratioP1;P2;durP2;ratioP2
15116;SDS011;7659;51.038;13.786;2023-11-21T00:01:15;3.53;;;1.13;;
15116;SDS011;7659;51.038;13.786;2023-11-21T00:03:40;2.00;;;0.82;;
15116;SDS011;7659;51.038;13.786;2023-11-21T00:06:06;3.22;;;0.82;;
15116;SDS011;7659;51.038;13.786;2023-11-21T00:08:34;1.92;;;0.70;;
15116;SDS011;7659;51.038;13.786;2023-11-21T00:11:00;1.23;;;0.60;;
15116;SDS011;7659;51.038;13.786;2023-11-21T00:13:26;2.30;;;0.82;;
15116;SDS011;7659;51.038;13.786;2023-11-21T00:15:52;4.25;;;1.05;;
15116;SDS011;7659;51.038;13.786;2023-11-21T00:18:17;2.30;;;0.90;;
15116;SDS011;7659;51.038;13.786;2023-11-21T00:20:43;2.33;;;1.10;;
15116;SDS011;7659;51.038;13.786;2023-11-21T00:23:08;1.55;;;0.80;;
15116;SDS011;7659;51.038;13.786;2023-11-21T00:25:34;4.78;;;1.02;;
15116;SDS011;7659;51.038;13.786;2023-11-21T00:28:00;3.28;;;1.42;;
15116;SDS011;7659;51.038;13.786;2023-11-21T00:30:27;2.72;;;1.02;;
15116;SDS011;7659;51.038;13.786;2023-11-21T00:32:53;3.67;;;1.48;;
15116;SDS011;7659;51.038;13.786;2023-11-21T00:35:19;2.03;;;0.88;;
15116;SDS011;7659;51.038;13.786;2023-11-21T00:37:45;1.83;;;0.90;;
15116;SDS011;7659;51.038;13.786;2023-11-21T00:40:10;2.13;;;0.90;;
15116;SDS011;7659;51.038;13.786;2023-11-21T00:42:36;4.72;;;1.20;;
15116;SDS011;7659;51.038;13.786;2023-11-21T00:45:02;3.88;;;0.98;;
15116;SDS011;7659;51.038;13.786;2023-11-21T00:47:30;3.70;;;1.35;;
15116;SDS011;7659;51.038;13.786;2023-11-21T00:49:55;4.32;;;1.27;;
15116;SDS011;7659;51.038;13.786;2023-11-21T00:52:22;4.32;;;1.48;;
15116;SDS011;7659;51.038;13.786;2023-11-21T00:54:47;5.05;;;1.00;;
15116;SDS011;7659;51.038;13.786;2023-11-21T00:57:13;3.65;;;1.02;;
15116;SDS011;7659;51.038;13.786;2023-11-21T00:59:38;5.18;;;1.02;;
15116;SDS011;7659;51.038;13.786;2023-11-21T01:02:06;3.28;;;1.20;;
15116;SDS011;7659;51.038;13.786;2023-11-21T01:04:35;3.72;;;1.50;;
15116;SDS011;7659;51.038;13.786;2023-11-21T01:07:00;3.53;;;1.20;;
15116;SDS011;7659;51.038;13.786;2023-11-21T01:09:26;4.55;;;1.35;;
15116;SDS011;7659;51.038;13.786;2023-11-21T01:11:51;3.63;;;1.60;;
15116;SDS011;7659;51.038;13.786;2023-11-21T01:14:17;6.20;;;1.40;;
15116;SDS011;7659;51.038;13.786;2023-11-21T01:16:43;6.55;;;1.27;;
15116;SDS011;7659;51.038;13.786;2023-11-21T01:19:08;4.47;;;1.52;;
15116;SDS011;7659;51.038;13.786;2023-11-21T01:21:34;5.40;;;1.35;;
15116;SDS011;7659;51.038;13.786;2023-11-21T01:24:00;3.35;;;1.30;;
15116;SDS011;7659;51.038;13.786;2023-11-21T01:26:25;2.75;;;1.30;;
15116;SDS011;7659;51.038;13.786;2023-11-21T01:28:50;2.85;;;1.30;;
15116;SDS011;7659;51.038;13.786;2023-11-21T01:31:17;4.15;;;2.03;;
15116;SDS011;7659;51.038;13.786;2023-11-21T01:33:42;4.40;;;1.65;;
15116;SDS011;7659;51.038;13.786;2023-11-21T01:36:08;4.63;;;1.50;;
15116;SDS011;7659;51.038;13.786;2023-11-21T01:38:34;3.85;;;1.15;;
15116;SDS011;7659;51.038;13.786;2023-11-21T01:41:00;9.63;;;1.75;;
15116;SDS011;7659;51.038;13.786;2023-11-21T01:43:26;7.43;;;1.88;;
15116;SDS011;7659;51.038;13.786;2023-11-21T01:45:52;3.55;;;1.35;;
15116;SDS011;7659;51.038;13.786;2023-11-21T01:48:19;4.32;;;1.50;;
15116;SDS011;7659;51.038;13.786;2023-11-21T01:50:47;3.42;;;1.02;;
15116;SDS011;7659;51.038;13.786;2023-11-21T01:53:14;4.20;;;1.10;;
15116;SDS011;7659;51.038;13.786;2023-11-21T01:55:40;4.50;;;1.48;;
15116;SDS011;7659;51.038;13.786;2023-11-21T01:58:06;2.83;;;1.30;;
15116;SDS011;7659;51.038;13.786;2023-11-21T02:00:32;2.65;;;1.40;;
15116;SDS011;7659;51.038;13.786;2023-11-21T02:02:58;3.40;;;1.40;;
15116;SDS011;7659;51.038;13.786;2023-11-21T02:05:24;5.05;;;1.60;;
15116;SDS011;7659;51.038;13.786;2023-11-21T02:07:51;4.10;;;1.40;;
15116;SDS011;7659;51.038;13.786;2023-11-21T02:10:17;7.85;;;1.90;;
15116;SDS011;7659;51.038;13.786;2023-11-21T02:12:48;5.22;;;1.50;;
15116;SDS011;7659;51.038;13.786;2023-11-21T02:15:15;7.25;;;2.30;;
15116;SDS011;7659;51.038;13.786;2023-11-21T02:17:45;6.72;;;2.08;;
15116;SDS011;7659;51.038;13.786;2023-11-21T02:20:20;6.30;;;1.65;;
15116;SDS011;7659;51.038;13.786;2023-11-21T02:22:51;9.07;;;1.95;;
15116;SDS011;7659;51.038;13.786;2023-11-21T02:25:27;4.25;;;1.50;;
15116;SDS011;7659;51.038;13.786;2023-11-21T02:27:56;3.17;;;1.40;;
15116;SDS011;7659;51.038;13.786;2023-11-21T02:30:22;6.40;;;1.73;;
15116;SDS011;7659;51.038;13.786;2023-11-21T02:32:48;4.88;;;1.58;;
15116;SDS011;7659;51.038;13.786;2023-11-21T02:35:14;7.35;;;1.58;;
15116;SDS011;7659;51.038;13.786;2023-11-21T02:37:41;7.45;;;1.90;;
15116;SDS011;7659;51.038;13.786;2023-11-21T02:40:08;4.35;;;1.60;;
15116;SDS011;7659;51.038;13.786;2023-11-21T02:42:35;7.55;;;1.58;;
15116;SDS011;7659;51.038;13.786;2023-11-21T02:45:00;4.28;;;1.33;;
15116;SDS011;7659;51.038;13.786;2023-11-21T02:47:26;3.65;;;1.50;;
15116;SDS011;7659;51.038;13.786;2023-11-21T02:49:51;4.05;;;1.40;;
15116;SDS011;7659;51.038;13.786;2023-11-21T02:52:18;6.60;;;1.90;;
15116;SDS011;7659;51.038;13.786;2023-11-21T02:54:44;6.90;;;1.13;;
15116;SDS011;7659;51.038;13.786;2023-11-21T02:57:10;5.43;;;1.52;;
15116;SDS011;7659;51.038;13.786;2023-11-21T02:59:35;3.72;;;1.38;;
15116;SDS011;7659;51.038;13.786;2023-11-21T03:02:00;6.65;;;1.55;;
15116;SDS011;7659;51.038;13.786;2023-11-21T03:04:26;4.50;;;1.42;;
15116;SDS011;7659;51.038;13.786;2023-11-21T03:06:52;3.55;;;1.25;;
15116;SDS011;7659;51.038;13.786;2023-11-21T03:09:17;3.30;;;1.40;;
15116;SDS011;7659;51.038;13.786;2023-11-21T03:11:43;3.30;;;1.52;;
15116;SDS011;7659;51.038;13.786;2023-11-21T03:14:08;7.82;;;1.48;;
15116;SDS011;7659;51.038;13.786;2023-11-21T03:16:34;6.13;;;1.60;;
15116;SDS011;7659;51.038;13.786;2023-11-21T03:19:00;7.60;;;2.00;;
15116;SDS011;7659;51.038;13.786;2023-11-21T03:21:27;13.35;;;1.85;;
15116;SDS011;7659;51.038;13.786;2023-11-21T03:23:52;8.27;;;1.52;;
15116;SDS011;7659;51.038;13.786;2023-11-21T03:26:18;4.38;;;1.70;;
15116;SDS011;7659;51.038;13.786;2023-11-21T03:28:43;6.03;;;1.58;;
15116;SDS011;7659;51.038;13.786;2023-11-21T03:31:09;4.25;;;1.50;;
15116;SDS011;7659;51.038;13.786;2023-11-21T03:33:35;6.82;;;1.88;;
15116;SDS011;7659;51.038;13.786;2023-11-21T03:36:00;3.63;;;1.80;;
15116;SDS011;7659;51.038;13.786;2023-11-21T03:38:26;5.88;;;1.60;;
15116;SDS011;7659;51.038;13.786;2023-11-21T03:40:51;4.45;;;1.40;;
15116;SDS011;7659;51.038;13.786;2023-11-21T03:43:17;6.25;;;1.58;;
15116;SDS011;7659;51.038;13.786;2023-11-21T03:45:42;3.33;;;1.63;;
15116;SDS011;7659;51.038;13.786;2023-11-21T03:48:09;3.80;;;1.20;;
15116;SDS011;7659;51.038;13.786;2023-11-21T03:50:37;8.93;;;1.67;;
15116;SDS011;7659;51.038;13.786;2023-11-21T03:53:02;3.70;;;1.45;;
15116;SDS011;7659;51.038;13.786;2023-11-21T03:55:29;6.82;;;1.70;;
15116;SDS011;7659;51.038;13.786;2023-11-21T03:57:56;7.07;;;1.90;;
15116;SDS011;7659;51.038;13.786;2023-11-21T04:00:22;5.68;;;1.80;;
15116;SDS011;7659;51.038;13.786;2023-11-21T04:02:47;5.53;;;1.83;;
15116;SDS011;7659;51.038;13.786;2023-11-21T04:05:13;8.50;;;1.38;;
15116;SDS011;7659;51.038;13.786;2023-11-21T04:07:38;4.10;;;1.50;;
15116;SDS011;7659;51.038;13.786;2023-11-21T04:10:04;3.60;;;1.67;;
15116;SDS011;7659;51.038;13.786;2023-11-21T04:12:34;5.15;;;1.63;;
15116;SDS011;7659;51.038;13.786;2023-11-21T04:15:00;8.52;;;2.03;;
15116;SDS011;7659;51.038;13.786;2023-11-21T04:17:25;4.95;;;1.85;;
15116;SDS011;7659;51.038;13.786;2023-11-21T04:19:50;8.65;;;1.70;;
15116;SDS011;7659;51.038;13.786;2023-11-21T04:22:16;6.72;;;1.60;;
15116;SDS011;7659;51.038;13.786;2023-11-21T04:24:41;10.88;;;2.38;;
15116;SDS011;7659;51.038;13.786;2023-11-21T04:27:07;6.05;;;1.92;;
15116;SDS011;7659;51.038;13.786;2023-11-21T04:29:33;6.03;;;2.05;;
15116;SDS011;7659;51.038;13.786;2023-11-21T04:31:58;4.38;;;1.80;;
15116;SDS011;7659;51.038;13.786;2023-11-21T04:34:24;4.68;;;1.90;;
15116;SDS011;7659;51.038;13.786;2023-11-21T04:36:49;7.20;;;1.98;;
15116;SDS011;7659;51.038;13.786;2023-11-21T04:39:15;7.63;;;2.17;;
15116;SDS011;7659;51.038;13.786;2023-11-21T04:41:40;6.88;;;2.15;;
15116;SDS011;7659;51.038;13.786;2023-11-21T04:44:06;7.95;;;2.08;;
15116;SDS011;7659;51.038;13.786;2023-11-21T04:46:31;13.10;;;2.97;;
15116;SDS011;7659;51.038;13.786;2023-11-21T04:48:57;8.20;;;2.33;;
15116;SDS011;7659;51.038;13.786;2023-11-21T04:51:23;8.68;;;2.05;;
15116;SDS011;7659;51.038;13.786;2023-11-21T04:53:48;7.72;;;1.90;;
15116;SDS011;7659;51.038;13.786;2023-11-21T04:56:14;9.18;;;1.90;;
15116;SDS011;7659;51.038;13.786;2023-11-21T04:58:41;5.18;;;1.95;;
15116;SDS011;7659;51.038;13.786;2023-11-21T05:01:09;8.25;;;2.25;;
15116;SDS011;7659;51.038;13.786;2023-11-21T05:03:35;6.57;;;2.08;;
15116;SDS011;7659;51.038;13.786;2023-11-21T05:06:00;9.13;;;2.35;;
15116;SDS011;7659;51.038;13.786;2023-11-21T05:08:25;7.35;;;2.20;;
15116;SDS011;7659;51.038;13.786;2023-11-21T05:10:51;10.57;;;2.63;;
15116;SDS011;7659;51.038;13.786;2023-11-21T05:13:17;5.93;;;2.08;;
15116;SDS011;7659;51.038;13.786;2023-11-21T05:15:44;6.90;;;2.13;;
15116;SDS011;7659;51.038;13.786;2023-11-21T05:18:09;11.32;;;2.58;;
15116;SDS011;7659;51.038;13.786;2023-11-21T05:20:35;7.63;;;2.90;;
15116;SDS011;7659;51.038;13.786;2023-11-21T05:23:01;7.82;;;2.20;;
15116;SDS011;7659;51.038;13.786;2023-11-21T05:25:27;11.65;;;2.40;;
15116;SDS011;7659;51.038;13.786;2023-11-21T05:27:52;13.32;;;2.75;;
15116;SDS011;7659;51.038;13.786;2023-11-21T05:30:20;12.05;;;2.42;;
15116;SDS011;7659;51.038;13.786;2023-11-21T05:32:46;10.63;;;3.10;;
15116;SDS011;7659;51.038;13.786;2023-11-21T05:35:12;9.38;;;2.45;;
15116;SDS011;7659;51.038;13.786;2023-11-21T05:37:41;3.88;;;2.47;;
15116;SDS011;7659;51.038;13.786;2023-11-21T05:40:07;9.63;;;2.95;;
15116;SDS011;7659;51.038;13.786;2023-11-21T05:42:36;9.93;;;2.97;;
15116;SDS011;7659;51.038;13.786;2023-11-21T05:45:01;9.32;;;3.30;;
15116;SDS011;7659;51.038;13.786;2023-11-21T05:47:40;9.10;;;2.58;;
15116;SDS011;7659;51.038;13.786;2023-11-21T05:50:06;13.43;;;2.75;;
15116;SDS011;7659;51.038;13.786;2023-11-21T05:52:34;10.52;;;3.13;;
15116;SDS011;7659;51.038;13.786;2023-11-21T05:55:00;10.90;;;3.25;;
15116;SDS011;7659;51.038;13.786;2023-11-21T05:57:25;8.20;;;3.00;;
15116;SDS011;7659;51.038;13.786;2023-11-21T05:59:51;14.10;;;3.00;;
15116;SDS011;7659;51.038;13.786;2023-11-21T06:02:16;6.05;;;2.58;;
15116;SDS011;7659;51.038;13.786;2023-11-21T06:04:42;10.68;;;3.13;;
15116;SDS011;7659;51.038;13.786;2023-11-21T06:07:07;9.45;;;2.90;;
15116;SDS011;7659;51.038;13.786;2023-11-21T06:09:33;14.82;;;3.17;;
15116;SDS011;7659;51.038;13.786;2023-11-21T06:11:59;11.15;;;3.28;;
15116;SDS011;7659;51.038;13.786;2023-11-21T06:14:25;8.30;;;2.88;;
15116;SDS011;7659;51.038;13.786;2023-11-21T06:16:50;6.82;;;2.80;;
15116;SDS011;7659;51.038;13.786;2023-11-21T06:19:17;10.57;;;3.10;;
15116;SDS011;7659;51.038;13.786;2023-11-21T06:21:46;10.02;;;3.70;;
15116;SDS011;7659;51.038;13.786;2023-11-21T06:24:12;12.05;;;3.70;;
15116;SDS011;7659;51.038;13.786;2023-11-21T06:26:38;5.88;;;3.20;;
15116;SDS011;7659;51.038;13.786;2023-11-21T06:29:03;10.48;;;3.40;;
15116;SDS011;7659;51.038;13.786;2023-11-21T06:31:29;7.90;;;3.42;;
15116;SDS011;7659;51.038;13.786;2023-11-21T06:33:54;11.00;;;3.60;;
15116;SDS011;7659;51.038;13.786;2023-11-21T06:36:20;14.20;;;3.90;;
15116;SDS011;7659;51.038;13.786;2023-11-21T06:38:46;9.95;;;3.85;;
15116;SDS011;7659;51.038;13.786;2023-11-21T06:41:11;14.43;;;4.00;;
15116;SDS011;7659;51.038;13.786;2023-11-21T06:43:40;12.55;;;3.78;;
15116;SDS011;7659;51.038;13.786;2023-11-21T06:46:05;10.00;;;3.95;;
15116;SDS011;7659;51.038;13.786;2023-11-21T06:48:31;10.82;;;3.85;;
15116;SDS011;7659;51.038;13.786;2023-11-21T06:50:56;12.48;;;4.43;;
15116;SDS011;7659;51.038;13.786;2023-11-21T06:53:22;11.45;;;3.75;;
15116;SDS011;7659;51.038;13.786;2023-11-21T06:55:47;14.10;;;4.43;;
15116;SDS011;7659;51.038;13.786;2023-11-21T06:58:13;13.82;;;4.97;;
15116;SDS011;7659;51.038;13.786;2023-11-21T07:00:40;9.77;;;3.72;;
15116;SDS011;7659;51.038;13.786;2023-11-21T07:03:05;13.77;;;4.28;;
15116;SDS011;7659;51.038;13.786;2023-11-21T07:05:30;16.38;;;4.80;;
15116;SDS011;7659;51.038;13.786;2023-11-21T07:07:56;13.70;;;5.13;;
15116;SDS011;7659;51.038;13.786;2023-11-21T07:10:21;13.98;;;4.82;;
15116;SDS011;7659;51.038;13.786;2023-11-21T07:12:47;15.73;;;4.60;;
15116;SDS011;7659;51.038;13.786;2023-11-21T07:15:12;17.30;;;4.88;;
15116;SDS011;7659;51.038;13.786;2023-11-21T07:17:38;16.55;;;4.57;;
15116;SDS011;7659;51.038;13.786;2023-11-21T07:20:05;19.98;;;5.47;;
15116;SDS011;7659;51.038;13.786;2023-11-21T07:22:32;14.63;;;5.10;;
15116;SDS011;7659;51.038;13.786;2023-11-21T07:24:57;11.55;;;4.68;;
15116;SDS011;7659;51.038;13.786;2023-11-21T07:27:22;15.13;;;5.07;;
15116;SDS011;7659;51.038;13.786;2023-11-21T07:29:48;10.30;;;4.50;;
15116;SDS011;7659;51.038;13.786;2023-11-21T07:32:14;13.13;;;4.82;;
15116;SDS011;7659;51.038;13.786;2023-11-21T07:34:40;15.13;;;5.28;;
15116;SDS011;7659;51.038;13.786;2023-11-21T07:37:06;17.05;;;6.18;;
15116;SDS011;7659;51.038;13.786;2023-11-21T07:39:32;19.23;;;5.10;;
15116;SDS011;7659;51.038;13.786;2023-11-21T07:41:57;15.00;;;5.47;;
15116;SDS011;7659;51.038;13.786;2023-11-21T07:44:23;12.05;;;5.07;;
15116;SDS011;7659;51.038;13.786;2023-11-21T07:46:48;19.15;;;5.40;;
15116;SDS011;7659;51.038;13.786;2023-11-21T07:49:15;18.35;;;6.05;;
15116;SDS011;7659;51.038;13.786;2023-11-21T07:51:42;16.30;;;5.50;;
15116;SDS011;7659;51.038;13.786;2023-11-21T07:54:09;15.15;;;5.47;;
15116;SDS011;7659;51.038;13.786;2023-11-21T07:56:35;16.38;;;5.85;;
15116;SDS011;7659;51.038;13.786;2023-11-21T07:59:00;19.38;;;5.88;;
15116;SDS011;7659;51.038;13.786;2023-11-21T08:01:26;21.98;;;6.95;;
15116;SDS011;7659;51.038;13.786;2023-11-21T08:03:53;17.40;;;6.47;;
15116;SDS011;7659;51.038;13.786;2023-11-21T08:06:22;16.63;;;5.45;;
15116;SDS011;7659;51.038;13.786;2023-11-21T08:08:48;16.38;;;5.65;;
15116;SDS011;7659;51.038;13.786;2023-11-21T08:11:13;17.08;;;6.53;;
15116;SDS011;7659;51.038;13.786;2023-11-21T08:13:39;17.10;;;6.40;;
15116;SDS011;7659;51.038;13.786;2023-11-21T08:16:04;13.43;;;5.90;;
15116;SDS011;7659;51.038;13.786;2023-11-21T08:18:32;18.48;;;6.72;;
15116;SDS011;7659;51.038;13.786;2023-11-21T08:20:59;21.30;;;7.30;;
15116;SDS011;7659;51.038;13.786;2023-11-21T08:23:25;22.10;;;9.13;;
15116;SDS011;7659;51.038;13.786;2023-11-21T08:25:54;22.77;;;7.57;;
15116;SDS011;7659;51.038;13.786;2023-11-21T08:28:20;25.25;;;6.88;;
15116;SDS011;7659;51.038;13.786;2023-11-21T08:30:53;19.90;;;7.20;;
15116;SDS011;7659;51.038;13.786;2023-11-21T08:33:22;23.20;;;8.48;;
15116;SDS011;7659;51.038;13.786;2023-11-21T08:35:48;20.83;;;8.02;;
15116;SDS011;7659;51.038;13.786;2023-11-21T08:38:13;22.92;;;9.38;;
15116;SDS011;7659;51.038;13.786;2023-11-21T08:40:39;24.00;;;9.38;;
15116;SDS011;7659;51.038;13.786;2023-11-21T08:43:04;23.10;;;9.27;;
15116;SDS011;7659;51.038;13.786;2023-11-21T08:45:30;25.13;;;10.02;;
15116;SDS011;7659;51.038;13.786;2023-11-21T08:47:56;25.73;;;9.98;;
15116;SDS011;7659;51.038;13.786;2023-11-21T08:50:21;23.95;;;9.20;;
15116;SDS011;7659;51.038;13.786;2023-11-21T08:52:47;30.15;;;9.82;;
15116;SDS011;7659;51.038;13.786;2023-11-21T08:55:12;18.08;;;8.55;;
15116;SDS011;7659;51.038;13.786;2023-11-21T08:57:39;26.25;;;9.45;;
15116;SDS011;7659;51.038;13.786;2023-11-21T09:00:06;26.58;;;9.98;;
15116;SDS011;7659;51.038;13.786;2023-11-21T09:02:33;16.73;;;8.35;;
15116;SDS011;7659;51.038;13.786;2023-11-21T09:05:03;26.88;;;9.63;;
15116;SDS011;7659;51.038;13.786;2023-11-21T09:07:28;18.55;;;9.45;;
15116;SDS011;7659;51.038;13.786;2023-11-21T09:09:54;17.13;;;9.02;;
15116;SDS011;7659;51.038;13.786;2023-11-21T09:12:20;20.58;;;8.60;;
15116;SDS011;7659;51.038;13.786;2023-11-21T09:14:46;19.48;;;7.45;;
15116;SDS011;7659;51.038;13.786;2023-11-21T09:17:11;24.90;;;8.77;;
15116;SDS011;7659;51.038;13.786;2023-11-21T09:19:40;17.52;;;7.82;;
15116;SDS011;7659;51.038;13.786;2023-11-21T09:22:06;13.63;;;6.88;;
15116;SDS011;7659;51.038;13.786;2023-11-21T09:24:32;14.15;;;7.10;;
15116;SDS011;7659;51.038;13.786;2023-11-21T09:26:57;10.93;;;6.65;;
15116;SDS011;7659;51.038;13.786;2023-11-21T09:29:23;14.75;;;7.63;;
15116;SDS011;7659;51.038;13.786;2023-11-21T09:31:48;13.70;;;6.82;;
15116;SDS011;7659;51.038;13.786;2023-11-21T09:34:16;14.63;;;7.65;;
15116;SDS011;7659;51.038;13.786;2023-11-21T09:36:44;12.23;;;7.03;;
15116;SDS011;7659;51.038;13.786;2023-11-21T09:39:10;13.60;;;7.15;;
15116;SDS011;7659;51.038;13.786;2023-11-21T09:41:42;14.80;;;7.40;;
15116;SDS011;7659;51.038;13.786;2023-11-21T09:44:10;12.07;;;7.22;;
15116;SDS011;7659;51.038;13.786;2023-11-21T09:46:37;10.93;;;7.10;;
15116;SDS011;7659;51.038;13.786;2023-11-21T09:49:04;14.82;;;7.45;;
15116;SDS011;7659;51.038;13.786;2023-11-21T09:51:33;17.20;;;7.95;;
15116;SDS011;7659;51.038;13.786;2023-11-21T09:54:03;22.23;;;9.43;;
15116;SDS011;7659;51.038;13.786;2023-11-21T09:56:34;15.13;;;8.43;;
15116;SDS011;7659;51.038;13.786;2023-11-21T09:59:01;9.02;;;4.60;;
15116;SDS011;7659;51.038;13.786;2023-11-21T10:01:31;7.57;;;4.60;;
15116;SDS011;7659;51.038;13.786;2023-11-21T10:03:57;5.53;;;3.13;;
15116;SDS011;7659;51.038;13.786;2023-11-21T10:06:23;4.53;;;2.50;;
15116;SDS011;7659;51.038;13.786;2023-11-21T10:08:50;4.05;;;2.67;;
15116;SDS011;7659;51.038;13.786;2023-11-21T10:11:16;5.82;;;3.55;;
15116;SDS011;7659;51.038;13.786;2023-11-21T10:13:43;4.15;;;3.42;;
15116;SDS011;7659;51.038;13.786;2023-11-21T10:16:11;6.43;;;4.00;;
15116;SDS011;7659;51.038;13.786;2023-11-21T10:18:39;8.48;;;5.95;;
15116;SDS011;7659;51.038;13.786;2023-11-21T10:21:06;8.70;;;5.97;;
15116;SDS011;7659;51.038;13.786;2023-11-21T10:23:32;19.83;;;9.70;;
15116;SDS011;7659;51.038;13.786;2023-11-21T10:25:57;10.10;;;7.45;;
15116;SDS011;7659;51.038;13.786;2023-11-21T10:28:24;14.15;;;8.25;;
15116;SDS011;7659;51.038;13.786;2023-11-21T10:30:50;12.32;;;8.07;;
15116;SDS011;7659;51.038;13.786;2023-11-21T10:33:15;10.88;;;8.13;;
15116;SDS011;7659;51.038;13.786;2023-11-21T10:38:07;12.13;;;7.68;;
15116;SDS011;7659;51.038;13.786;2023-11-21T10:40:38;10.05;;;7.50;;
15116;SDS011;7659;51.038;13.786;2023-11-21T10:43:10;10.85;;;7.30;;
15116;SDS011;7659;51.038;13.786;2023-11-21T10:45:39;9.40;;;7.10;;
15116;SDS011;7659;51.038;13.786;2023-11-21T10:48:05;9.18;;;6.88;;
15116;SDS011;7659;51.038;13.786;2023-11-21T10:50:32;12.95;;;7.57;;
15116;SDS011;7659;51.038;13.786;2023-11-21T10:52:57;11.93;;;7.80;;
15116;SDS011;7659;51.038;13.786;2023-11-21T10:55:23;10.55;;;8.07;;
15116;SDS011;7659;51.038;13.786;2023-11-21T10:57:53;13.32;;;7.85;;
15116;SDS011;7659;51.038;13.786;2023-11-21T11:00:19;13.40;;;9.20;;
15116;SDS011;7659;51.038;13.786;2023-11-21T11:02:52;13.93;;;9.15;;
15116;SDS011;7659;51.038;13.786;2023-11-21T11:05:19;17.48;;;9.15;;
15116;SDS011;7659;51.038;13.786;2023-11-21T11:07:44;15.80;;;9.30;;
15116;SDS011;7659;51.038;13.786;2023-11-21T11:10:12;14.25;;;8.38;;
15116;SDS011;7659;51.038;13.786;2023-11-21T11:12:40;12.60;;;9.07;;
15116;SDS011;7659;51.038;13.786;2023-11-21T11:15:06;11.30;;;7.30;;
15116;SDS011;7659;51.038;13.786;2023-11-21T11:17:35;9.35;;;6.38;;
15116;SDS011;7659;51.038;13.786;2023-11-21T11:20:04;11.55;;;7.22;;
15116;SDS011;7659;51.038;13.786;2023-11-21T11:22:47;11.10;;;6.95;;
15116;SDS011;7659;51.038;13.786;2023-11-21T11:25:21;12.13;;;7.93;;
15116;SDS011;7659;51.038;13.786;2023-11-21T11:36:00;12.70;;;6.50;;
15116;SDS011;7659;51.038;13.786;2023-11-21T11:38:31;11.18;;;6.03;;
15116;SDS011;7659;51.038;13.786;2023-11-21T11:40:56;9.55;;;6.60;;
15116;SDS011;7659;51.038;13.786;2023-11-21T11:43:24;9.02;;;6.28;;
15116;SDS011;7659;51.038;13.786;2023-11-21T11:45:50;9.13;;;5.88;;
15116;SDS011;7659;51.038;13.786;2023-11-21T11:48:18;12.70;;;6.55;;
15116;SDS011;7659;51.038;13.786;2023-11-21T11:51:05;28.48;;;13.65;;
15116;SDS011;7659;51.038;13.786;2023-11-21T11:53:33;17.42;;;8.70;;
15116;SDS011;7659;51.038;13.786;2023-11-21T11:56:18;11.32;;;6.78;;
15116;SDS011;7659;51.038;13.786;2023-11-21T11:58:44;8.70;;;6.03;;
15116;SDS011;7659;51.038;13.786;2023-11-21T12:01:11;8.98;;;6.30;;
15116;SDS011;7659;51.038;13.786;2023-11-21T12:03:37;14.25;;;7.22;;
15116;SDS011;7659;51.038;13.786;2023-11-21T12:06:02;10.20;;;7.22;;
15116;SDS011;7659;51.038;13.786;2023-11-21T12:08:28;10.25;;;6.95;;
15116;SDS011;7659;51.038;13.786;2023-11-21T12:10:56;11.10;;;7.57;;
15116;SDS011;7659;51.038;13.786;2023-11-21T12:13:22;10.02;;;7.00;;
15116;SDS011;7659;51.038;13.786;2023-11-21T12:15:48;17.38;;;11.77;;
15116;SDS011;7659;51.038;13.786;2023-11-21T12:18:14;10.77;;;7.55;;
15116;SDS011;7659;51.038;13.786;2023-11-21T12:20:39;12.85;;;7.85;;
15116;SDS011;7659;51.038;13.786;2023-11-21T12:23:06;9.13;;;7.15;;
15116;SDS011;7659;51.038;13.786;2023-11-21T12:25:34;10.35;;;6.82;;
15116;SDS011;7659;51.038;13.786;2023-11-21T12:28:02;10.20;;;7.88;;
15116;SDS011;7659;51.038;13.786;2023-11-21T12:30:33;10.18;;;7.28;;
15116;SDS011;7659;51.038;13.786;2023-11-21T12:33:01;10.30;;;7.20;;
15116;SDS011;7659;51.038;13.786;2023-11-21T12:35:30;9.77;;;6.82;;
15116;SDS011;7659;51.038;13.786;2023-11-21T12:37:56;12.18;;;8.65;;
15116;SDS011;7659;51.038;13.786;2023-11-21T12:40:25;10.20;;;7.03;;
15116;SDS011;7659;51.038;13.786;2023-11-21T12:42:55;13.63;;;9.65;;
15116;SDS011;7659;51.038;13.786;2023-11-21T12:47:47;15.05;;;9.48;;
15116;SDS011;7659;51.038;13.786;2023-11-21T12:50:13;12.30;;;9.07;;
15116;SDS011;7659;51.038;13.786;2023-11-21T12:52:45;13.50;;;9.63;;
15116;SDS011;7659;51.038;13.786;2023-11-21T12:55:17;18.52;;;9.70;;
15116;SDS011;7659;51.038;13.786;2023-11-21T12:57:47;13.30;;;9.48;;
15116;SDS011;7659;51.038;13.786;2023-11-21T13:00:15;30.08;;;15.57;;
15116;SDS011;7659;51.038;13.786;2023-11-21T13:02:52;14.07;;;10.02;;
15116;SDS011;7659;51.038;13.786;2023-11-21T13:05:28;11.07;;;8.60;;
15116;SDS011;7659;51.038;13.786;2023-11-21T13:07:54;12.80;;;9.52;;
15116;SDS011;7659;51.038;13.786;2023-11-21T13:10:22;13.20;;;9.23;;
15116;SDS011;7659;51.038;13.786;2023-11-21T13:12:51;14.50;;;9.50;;
15116;SDS011;7659;51.038;13.786;2023-11-21T13:15:17;12.25;;;9.63;;
15116;SDS011;7659;51.038;13.786;2023-11-21T13:17:46;14.30;;;10.27;;
15116;SDS011;7659;51.038;13.786;2023-11-21T13:20:12;15.80;;;10.80;;
15116;SDS011;7659;51.038;13.786;2023-11-21T13:22:52;19.13;;;11.75;;
15116;SDS011;7659;51.038;13.786;2023-11-21T13:25:24;20.15;;;12.95;;
15116;SDS011;7659;51.038;13.786;2023-11-21T13:27:53;23.10;;;14.73;;
15116;SDS011;7659;51.038;13.786;2023-11-21T13:30:19;20.60;;;13.80;;
15116;SDS011;7659;51.038;13.786;2023-11-21T13:32:51;18.40;;;12.63;;
15116;SDS011;7659;51.038;13.786;2023-11-21T13:35:17;15.65;;;10.95;;
15116;SDS011;7659;51.038;13.786;2023-11-21T13:37:56;17.45;;;10.27;;
15116;SDS011;7659;51.038;13.786;2023-11-21T13:40:25;14.68;;;10.00;;
15116;SDS011;7659;51.038;13.786;2023-11-21T13:42:52;16.27;;;10.77;;
15116;SDS011;7659;51.038;13.786;2023-11-21T13:45:19;16.27;;;11.10;;
15116;SDS011;7659;51.038;13.786;2023-11-21T13:47:45;19.52;;;11.10;;
15116;SDS011;7659;51.038;13.786;2023-11-21T13:50:11;18.33;;;10.50;;
15116;SDS011;7659;51.038;13.786;2023-11-21T13:52:42;19.58;;;11.88;;
15116;SDS011;7659;51.038;13.786;2023-11-21T13:55:09;17.77;;;11.65;;
15116;SDS011;7659;51.038;13.786;2023-11-21T13:57:40;19.77;;;12.55;;
15116;SDS011;7659;51.038;13.786;2023-11-21T14:00:08;23.33;;;12.70;;
15116;SDS011;7659;51.038;13.786;2023-11-21T14:02:44;20.92;;;12.27;;
15116;SDS011;7659;51.038;13.786;2023-11-21T14:05:10;24.17;;;13.43;;
15116;SDS011;7659;51.038;13.786;2023-11-21T14:07:36;23.83;;;13.30;;
15116;SDS011;7659;51.038;13.786;2023-11-21T14:10:02;24.40;;;12.27;;
15116;SDS011;7659;51.038;13.786;2023-11-21T14:12:28;21.60;;;12.32;;
15116;SDS011;7659;51.038;13.786;2023-11-21T14:14:54;20.73;;;11.88;;
15116;SDS011;7659;51.038;13.786;2023-11-21T14:17:20;24.15;;;12.40;;
15116;SDS011;7659;51.038;13.786;2023-11-21T14:19:48;15.88;;;9.95;;
15116;SDS011;7659;51.038;13.786;2023-11-21T14:22:14;15.90;;;10.05;;
15116;SDS011;7659;51.038;13.786;2023-11-21T14:24:39;16.98;;;10.10;;
15116;SDS011;7659;51.038;13.786;2023-11-21T14:27:13;18.98;;;10.00;;
15116;SDS011;7659;51.038;13.786;2023-11-21T14:29:40;18.38;;;10.80;;
15116;SDS011;7659;51.038;13.786;2023-11-21T14:32:08;20.63;;;11.05;;
15116;SDS011;7659;51.038;13.786;2023-11-21T14:34:34;21.98;;;11.98;;
15116;SDS011;7659;51.038;13.786;2023-11-21T14:36:59;20.25;;;11.90;;
15116;SDS011;7659;51.038;13.786;2023-11-21T14:39:28;21.48;;;11.30;;
15116;SDS011;7659;51.038;13.786;2023-11-21T14:41:54;21.90;;;11.85;;
15116;SDS011;7659;51.038;13.786;2023-11-21T14:44:21;22.75;;;12.65;;
15116;SDS011;7659;51.038;13.786;2023-11-21T14:46:51;21.92;;;11.93;;
15116;SDS011;7659;51.038;13.786;2023-11-21T14:49:18;28.88;;;12.18;;